createdAt,value
2022-09-06T00:01:25.548Z,72.72
2022-09-06T00:03:52.485Z,72.45
2022-09-06T00:06:20.430Z,72.50
2022-09-06T00:08:48.503Z,72.52
2022-09-06T00:11:16.355Z,72.46
2022-09-06T00:13:43.942Z,72.35
2022-09-06T00:16:14.441Z,72.25
2022-09-06T00:18:42.146Z,72.21
2022-09-06T00:21:35.789Z,71.84
2022-09-06T00:24:03.956Z,72.13
2022-09-06T00:26:30.679Z,72.15
2022-09-06T00:28:57.927Z,72.03
2022-09-06T00:31:26.391Z,71.93
2022-09-06T00:33:53.564Z,72.00
2022-09-06T00:36:21.912Z,72.19
2022-09-06T00:38:48.860Z,72.41
2022-09-06T00:41:16.874Z,72.10
2022-09-06T00:43:44.194Z,72.19
2022-09-06T00:46:16.907Z,72.48
2022-09-06T00:48:45.602Z,72.05
2022-09-06T00:51:14.574Z,72.14
2022-09-06T00:53:41.756Z,72.02
2022-09-06T00:56:09.102Z,72.07
2022-09-06T00:58:36.937Z,71.93
2022-09-06T01:01:04.646Z,72.05
2022-09-06T01:03:31.598Z,72.00
2022-09-06T01:06:17.086Z,72.12
2022-09-06T01:08:55.867Z,72.32
2022-09-06T01:11:41.274Z,72.04
2022-09-06T01:14:26.035Z,72.12
2022-09-06T01:17:17.480Z,72.13
2022-09-06T01:19:47.342Z,72.49
2022-09-06T01:22:32.162Z,72.64
2022-09-06T01:25:19.020Z,72.35
2022-09-06T01:28:07.253Z,72.60
2022-09-06T01:30:39.605Z,72.52
2022-09-06T01:33:28.812Z,72.58
2022-09-06T01:36:03.441Z,73.20
2022-09-06T01:38:30.433Z,73.35
2022-09-06T01:40:57.276Z,73.27
2022-09-06T01:43:31.786Z,73.34
2022-09-06T01:46:08.888Z,73.30
2022-09-06T01:48:46.253Z,73.45
2022-09-06T01:51:54.084Z,73.12
2022-09-06T01:54:51.932Z,73.12
2022-09-06T01:58:02.567Z,73.30
2022-09-06T02:00:29.511Z,73.33
2022-09-06T02:02:59.303Z,73.27
2022-09-06T02:05:31.800Z,73.26
2022-09-06T02:08:11.814Z,73.32
2022-09-06T02:10:45.905Z,73.21
2022-09-06T02:13:15.267Z,73.06
2022-09-06T02:15:54.172Z,73.19
2022-09-06T02:18:57.660Z,72.74
2022-09-06T02:21:30.244Z,72.60
2022-09-06T02:24:01.960Z,72.55
2022-09-06T02:26:32.630Z,72.66
2022-09-06T02:28:59.596Z,72.27
2022-09-06T02:31:34.980Z,72.59
2022-09-06T02:34:02.150Z,72.27
2022-09-06T02:36:31.670Z,72.45
2022-09-06T02:39:02.104Z,72.25
2022-09-06T02:41:31.242Z,72.48
2022-09-06T02:43:58.302Z,72.42
2022-09-06T02:46:25.259Z,72.09
2022-09-06T02:48:52.072Z,71.86
2022-09-06T02:51:18.952Z,71.80
2022-09-06T02:53:45.725Z,71.77
2022-09-06T02:56:12.763Z,71.67
2022-09-06T02:58:40.105Z,71.73
2022-09-06T03:01:07.459Z,71.24
2022-09-06T03:03:34.325Z,71.19
2022-09-06T03:06:01.235Z,71.25
2022-09-06T03:08:33.361Z,71.22
2022-09-06T03:11:00.987Z,71.15
2022-09-06T03:13:28.446Z,71.32
2022-09-06T03:15:57.899Z,70.93
2022-09-06T03:18:26.293Z,70.93
2022-09-06T03:20:54.383Z,71.38
2022-09-06T03:23:27.052Z,71.15
2022-09-06T03:25:54.370Z,71.19
2022-09-06T03:28:22.264Z,71.39
2022-09-06T03:30:50.734Z,71.17
2022-09-06T03:33:18.327Z,71.21
2022-09-06T03:35:56.818Z,71.00
2022-09-06T03:38:28.129Z,70.92
2022-09-06T03:40:55.561Z,70.99
2022-09-06T03:43:24.622Z,71.00
2022-09-06T03:45:54.559Z,70.93
2022-09-06T03:48:23.405Z,70.70
2022-09-06T03:50:53.206Z,70.67
2022-09-06T03:53:20.997Z,70.71
2022-09-06T03:55:49.435Z,70.78
2022-09-06T03:58:18.467Z,70.84
2022-09-06T04:00:45.867Z,70.68
2022-09-06T04:03:13.233Z,70.77
2022-09-06T04:05:40.172Z,70.55
2022-09-06T04:08:06.946Z,70.84
2022-09-06T04:10:33.945Z,70.76
2022-09-06T04:13:00.899Z,70.77
2022-09-06T04:15:27.898Z,70.71
2022-09-06T04:17:54.659Z,70.82
2022-09-06T04:20:21.638Z,70.77
2022-09-06T04:22:48.460Z,75.20
2022-09-06T04:25:15.296Z,70.49
2022-09-06T04:27:42.017Z,70.64
2022-09-06T04:30:09.163Z,70.94
2022-09-06T04:32:35.954Z,71.14
2022-09-06T04:35:02.868Z,71.20
2022-09-06T04:37:29.617Z,71.13
2022-09-06T04:39:56.882Z,71.31
2022-09-06T04:42:23.577Z,71.22
2022-09-06T04:44:50.557Z,71.34
2022-09-06T04:47:19.166Z,71.12
2022-09-06T04:49:48.176Z,71.01
2022-09-06T04:52:15.116Z,71.10
2022-09-06T04:54:41.992Z,71.25
2022-09-06T04:57:08.828Z,71.11
2022-09-06T04:59:35.749Z,70.98
2022-09-06T05:02:02.458Z,70.74
2022-09-06T05:04:29.285Z,70.90
2022-09-06T05:07:05.117Z,70.64
2022-09-06T05:09:32.966Z,70.62
2022-09-06T05:12:00.598Z,70.32
2022-09-06T05:14:28.726Z,70.38
2022-09-06T05:16:55.855Z,69.95
2022-09-06T05:19:22.713Z,69.71
2022-09-06T05:21:51.214Z,69.75
2022-09-06T05:24:18.080Z,69.34
2022-09-06T05:26:44.981Z,69.43
2022-09-06T05:29:12.004Z,69.32
2022-09-06T05:31:38.927Z,69.33
2022-09-06T05:34:06.888Z,69.26
2022-09-06T05:36:33.958Z,69.20
2022-09-06T05:39:00.711Z,69.08
2022-09-06T05:41:27.830Z,69.32
2022-09-06T05:43:54.981Z,68.82
2022-09-06T05:46:21.802Z,68.68
2022-09-06T05:48:53.255Z,68.49
2022-09-06T05:51:20.255Z,68.45
2022-09-06T05:53:47.145Z,67.96
2022-09-06T05:56:14.899Z,68.17
2022-09-06T05:58:41.747Z,68.04
2022-09-06T06:01:16.782Z,67.88
2022-09-06T06:03:54.147Z,67.69
2022-09-06T06:06:22.180Z,67.36
2022-09-06T06:08:49.527Z,66.80
2022-09-06T06:11:17.188Z,67.13
2022-09-06T06:13:44.587Z,66.48
2022-09-06T06:16:13.695Z,66.07
2022-09-06T06:18:41.220Z,65.76
2022-09-06T06:21:21.105Z,65.46
2022-09-06T06:23:52.154Z,65.25
2022-09-06T06:26:19.804Z,65.12
2022-09-06T06:28:46.759Z,65.27
2022-09-06T06:31:14.333Z,64.74
2022-09-06T06:33:41.729Z,64.81
2022-09-06T06:36:23.670Z,63.76
2022-09-06T06:38:53.244Z,63.92
2022-09-06T06:41:24.013Z,64.09
2022-09-06T06:43:55.412Z,63.53
2022-09-06T06:46:24.461Z,62.55
2022-09-06T06:48:54.825Z,63.16
2022-09-06T06:51:24.580Z,62.41
2022-09-06T06:53:51.626Z,62.61
2022-09-06T06:56:20.998Z,63.00
2022-09-06T06:58:50.201Z,62.87
2022-09-06T07:01:18.280Z,62.76
2022-09-06T07:03:45.063Z,62.90
2022-09-06T07:06:12.566Z,63.02
2022-09-06T07:08:41.007Z,63.02
2022-09-06T07:11:10.322Z,62.78
2022-09-06T07:13:37.668Z,62.73
2022-09-06T07:16:13.936Z,63.07
2022-09-06T07:18:42.395Z,62.77
2022-09-06T07:26:32.138Z,63.89
2022-09-06T07:29:01.003Z,63.65
2022-09-06T07:34:17.676Z,63.27
2022-09-06T07:36:44.485Z,62.50
2022-09-06T07:39:11.313Z,61.88
2022-09-06T07:41:38.123Z,61.43
2022-09-06T07:44:05.259Z,61.09
2022-09-06T07:46:32.064Z,60.94
2022-09-06T07:48:58.943Z,60.69
2022-09-06T07:51:25.685Z,61.02
2022-09-06T07:54:07.390Z,60.28
2022-09-06T07:56:42.802Z,60.64
2022-09-06T07:59:09.708Z,60.76
2022-09-06T08:01:38.400Z,60.88
2022-09-06T08:04:08.620Z,60.90
2022-09-06T08:09:25.183Z,60.22
2022-09-06T08:11:52.772Z,60.28
2022-09-06T08:14:20.323Z,59.61
2022-09-06T08:16:47.330Z,59.23
2022-09-06T08:19:14.169Z,58.90
2022-09-06T08:21:41.147Z,58.75
2022-09-06T08:24:12.419Z,57.85
2022-09-06T08:26:43.281Z,57.44
2022-09-06T08:29:11.567Z,56.91
2022-09-06T08:31:43.718Z,56.34
2022-09-06T08:34:14.321Z,56.36
2022-09-06T08:36:41.781Z,56.86
2022-09-06T08:39:10.113Z,56.62
2022-09-06T08:41:58.701Z,56.12
2022-09-06T08:44:55.367Z,56.82
2022-09-06T08:47:23.231Z,55.27
2022-09-06T08:50:04.175Z,54.04
2022-09-06T08:53:17.197Z,52.69
2022-09-06T08:56:32.565Z,51.80
2022-09-06T08:59:11.697Z,51.48
2022-09-06T09:02:10.145Z,50.67
2022-09-06T09:04:41.588Z,48.86
2022-09-06T09:07:35.709Z,47.27
2022-09-06T09:10:09.555Z,45.69
2022-09-06T09:12:44.043Z,46.13
2022-09-06T09:15:15.212Z,45.97
2022-09-06T09:17:45.069Z,45.37
2022-09-06T09:20:11.800Z,44.83
2022-09-06T09:22:39.912Z,43.42
2022-09-06T09:25:11.853Z,42.77
2022-09-06T09:27:39.718Z,41.39
2022-09-06T09:32:55.320Z,40.24
2022-09-06T09:35:33.983Z,39.87
2022-09-06T09:38:11.797Z,38.14
2022-09-06T09:40:50.177Z,38.45
2022-09-06T09:43:26.832Z,38.53
2022-09-06T09:46:17.524Z,39.06
2022-09-06T09:49:01.209Z,37.82
2022-09-06T09:51:28.962Z,37.79
2022-09-06T09:54:01.237Z,37.44
2022-09-06T09:56:51.599Z,35.42
2022-09-06T09:59:31.663Z,35.66
2022-09-06T10:02:16.230Z,34.69
2022-09-06T10:04:50.400Z,33.38
2022-09-06T10:07:20.829Z,33.87
2022-09-06T10:09:59.173Z,32.76
2022-09-06T10:12:31.377Z,32.70
2022-09-06T10:15:01.215Z,32.69
2022-09-06T10:17:47.484Z,32.73
2022-09-06T10:20:14.791Z,31.46
2022-09-06T10:22:46.747Z,31.86
2022-09-06T10:25:42.936Z,30.71
2022-09-06T10:28:26.954Z,31.45
2022-09-06T10:31:18.137Z,31.10
2022-09-06T10:34:10.023Z,31.61
2022-09-06T10:37:07.461Z,32.37
2022-09-06T10:40:03.016Z,31.19
2022-09-06T10:42:42.399Z,31.41
2022-09-06T10:45:21.812Z,30.47
2022-09-06T10:48:02.896Z,31.37
2022-09-06T10:50:46.771Z,30.83
2022-09-06T10:53:21.280Z,29.87
2022-09-06T10:55:52.914Z,30.42
2022-09-06T10:58:27.690Z,29.61
2022-09-06T11:00:55.278Z,29.92
2022-09-06T11:04:02.081Z,30.09
2022-09-06T11:06:34.874Z,29.11
2022-09-06T11:09:16.897Z,29.48
2022-09-06T11:12:12.441Z,29.54
2022-09-06T11:14:40.809Z,29.33
2022-09-06T11:17:13.992Z,31.03
2022-09-06T11:19:40.633Z,31.96
2022-09-06T11:22:22.953Z,32.22
2022-09-06T11:25:46.656Z,32.35
2022-09-06T11:28:18.765Z,32.48
2022-09-06T11:30:48.247Z,32.94
2022-09-06T11:33:26.657Z,33.47
2022-09-06T11:35:54.894Z,33.22
2022-09-06T11:38:26.131Z,33.43
2022-09-06T11:41:02.809Z,33.55
2022-09-06T11:43:49.143Z,32.94
2022-09-06T11:46:34.367Z,33.54
2022-09-06T11:49:16.549Z,33.31
2022-09-06T11:51:45.222Z,33.68
2022-09-06T11:54:15.283Z,33.22
2022-09-06T11:56:55.657Z,33.23
2022-09-06T11:59:34.138Z,33.49
2022-09-06T12:02:26.848Z,34.12
2022-09-06T12:05:16.781Z,35.10
2022-09-06T12:08:11.706Z,34.41
2022-09-06T12:11:02.188Z,34.51
2022-09-06T12:13:47.471Z,34.23
2022-09-06T12:16:16.410Z,34.18
2022-09-06T12:18:43.056Z,33.41
2022-09-06T12:21:31.187Z,33.13
2022-09-06T12:23:58.651Z,33.03
2022-09-06T12:26:53.205Z,33.20
2022-09-06T12:29:27.254Z,33.73
2022-09-06T12:31:57.306Z,34.72
2022-09-06T12:34:45.116Z,35.16
2022-09-06T12:37:12.084Z,35.63
2022-09-06T12:39:38.874Z,35.52
2022-09-06T12:42:10.716Z,35.04
2022-09-06T12:44:50.952Z,35.78
2022-09-06T12:47:30.858Z,35.51
2022-09-06T12:50:25.171Z,35.34
2022-09-06T12:52:59.314Z,35.79
2022-09-06T12:55:33.991Z,35.17
2022-09-06T12:58:04.146Z,35.99
2022-09-06T13:00:44.644Z,36.24
2022-09-06T13:03:24.162Z,36.24
2022-09-06T13:05:52.767Z,35.34
2022-09-06T13:08:35.529Z,35.05
2022-09-06T13:11:04.953Z,33.61
2022-09-06T13:13:31.860Z,32.47
2022-09-06T13:15:58.897Z,31.07
2022-09-06T13:18:37.410Z,30.35
2022-09-06T13:21:07.276Z,30.47
2022-09-06T13:23:48.747Z,30.06
2022-09-06T13:26:31.492Z,29.95
2022-09-06T13:29:29.127Z,29.93
2022-09-06T13:31:59.923Z,30.25
2022-09-06T13:34:32.536Z,30.04
2022-09-06T13:37:05.884Z,30.32
2022-09-06T13:39:33.883Z,30.48
2022-09-06T13:42:26.020Z,30.52
2022-09-06T13:44:53.196Z,30.54
2022-09-06T13:47:19.984Z,30.94
2022-09-06T13:49:47.249Z,30.99
2022-09-06T13:52:14.718Z,30.89
2022-09-06T13:54:41.655Z,31.38
2022-09-06T13:57:09.753Z,31.57
2022-09-06T13:59:37.059Z,31.49
2022-09-06T14:02:14.038Z,32.11
2022-09-06T14:04:40.910Z,33.33
2022-09-06T14:07:07.621Z,33.47
2022-09-06T14:09:34.440Z,34.61
2022-09-06T14:12:02.132Z,35.21
2022-09-06T14:14:29.821Z,35.26
2022-09-06T14:16:56.999Z,35.86
2022-09-06T14:19:23.800Z,36.14
2022-09-06T14:21:50.525Z,36.17
2022-09-06T14:24:17.822Z,36.09
2022-09-06T14:26:44.587Z,35.60
2022-09-06T14:29:11.902Z,35.38
2022-09-06T14:31:39.628Z,35.06
2022-09-06T14:34:06.957Z,35.12
2022-09-06T14:36:34.201Z,34.91
2022-09-06T14:39:02.078Z,34.82
2022-09-06T14:41:29.019Z,34.72
2022-09-06T14:43:57.720Z,35.42
2022-09-06T14:46:26.814Z,35.55
2022-09-06T14:49:08.344Z,35.87
2022-09-06T14:51:36.794Z,35.98
2022-09-06T14:54:08.062Z,36.56
2022-09-06T14:56:35.364Z,36.62
2022-09-06T14:59:02.179Z,37.19
2022-09-06T15:01:37.078Z,37.21
2022-09-06T15:04:07.183Z,37.53
2022-09-06T15:06:34.963Z,37.21
2022-09-06T15:09:01.790Z,37.99
2022-09-06T15:11:35.875Z,38.06
2022-09-06T15:14:04.323Z,38.55
2022-09-06T15:16:32.923Z,38.95
2022-09-06T15:19:00.479Z,39.62
2022-09-06T15:21:27.584Z,39.55
2022-09-06T15:23:54.627Z,39.91
2022-09-06T15:26:22.247Z,39.88
2022-09-06T15:28:49.646Z,39.73
2022-09-06T15:31:17.617Z,40.21
2022-09-06T15:33:44.639Z,40.28
2022-09-06T15:36:12.385Z,40.69
2022-09-06T15:38:43.226Z,41.05
2022-09-06T15:41:12.997Z,41.11
2022-09-06T15:43:42.953Z,41.33
2022-09-06T15:46:10.166Z,40.89
2022-09-06T15:48:45.479Z,40.68
2022-09-06T15:51:14.691Z,40.78
2022-09-06T15:53:41.628Z,41.20
2022-09-06T15:56:10.859Z,41.13
2022-09-06T15:58:37.631Z,41.63
2022-09-06T16:01:09.365Z,41.55
2022-09-06T16:03:47.318Z,41.62
2022-09-06T16:08:56.334Z,42.70
2022-09-06T16:11:23.335Z,42.86
2022-09-06T16:13:50.092Z,43.38
2022-09-06T16:16:17.488Z,44.19
2022-09-06T16:18:48.628Z,45.93
2022-09-06T16:21:15.378Z,45.74
2022-09-06T16:23:42.997Z,45.45
2022-09-06T16:26:10.229Z,45.43
2022-09-06T16:28:38.017Z,45.93
2022-09-06T16:31:08.523Z,46.06
2022-09-06T16:33:37.617Z,46.25
2022-09-06T16:36:07.065Z,47.72
2022-09-06T16:38:34.302Z,46.79
2022-09-06T16:41:14.489Z,47.55
2022-09-06T16:43:42.042Z,47.57
2022-09-06T16:46:10.162Z,47.28
2022-09-06T16:48:37.265Z,48.18
2022-09-06T16:51:18.183Z,48.17
2022-09-06T16:53:47.579Z,48.37
2022-09-06T16:56:17.884Z,48.79
2022-09-06T16:58:52.631Z,49.49
2022-09-06T17:01:20.616Z,49.05
2022-09-06T17:03:48.220Z,49.98
2022-09-06T17:06:15.142Z,49.63
2022-09-06T17:08:42.895Z,50.24
2022-09-06T17:11:14.764Z,50.40
2022-09-06T17:13:42.210Z,50.50
2022-09-06T17:16:28.106Z,50.63
2022-09-06T17:18:55.190Z,51.80
2022-09-06T17:21:23.603Z,50.98
2022-09-06T17:23:51.577Z,51.25
2022-09-06T17:26:22.365Z,51.16
2022-09-06T17:28:50.109Z,51.62
2022-09-06T17:31:22.186Z,52.00
2022-09-06T17:33:52.489Z,52.14
2022-09-06T17:36:25.107Z,52.33
2022-09-06T17:38:53.758Z,52.45
2022-09-06T17:41:27.429Z,52.59
2022-09-06T17:43:54.989Z,53.49
2022-09-06T17:46:28.486Z,53.51
2022-09-06T17:48:56.485Z,53.75
2022-09-06T17:51:24.700Z,53.94
2022-09-06T17:53:52.766Z,54.15
2022-09-06T17:56:20.746Z,54.52
2022-09-06T17:58:55.632Z,54.71
2022-09-06T18:01:24.099Z,54.86
2022-09-06T18:03:51.349Z,54.78
2022-09-06T18:06:20.479Z,54.95
2022-09-06T18:08:48.157Z,55.10
2022-09-06T18:11:17.979Z,55.10
2022-09-06T18:13:45.572Z,55.10
2022-09-06T18:16:14.121Z,55.19
2022-09-06T18:18:41.742Z,55.45
2022-09-06T18:21:08.545Z,55.15
2022-09-06T18:23:35.851Z,55.29
2022-09-06T18:26:05.766Z,55.83
2022-09-06T18:28:36.216Z,55.87
2022-09-06T18:31:08.714Z,56.15
2022-09-06T18:33:36.518Z,56.30
2022-09-06T18:36:04.864Z,56.26
2022-09-06T18:38:31.677Z,56.51
2022-09-06T18:41:00.952Z,56.36
2022-09-06T18:43:30.736Z,56.39
2022-09-06T18:46:08.824Z,56.77
2022-09-06T18:48:37.348Z,56.78
2022-09-06T18:51:11.457Z,58.06
2022-09-06T18:53:43.972Z,56.84
2022-09-06T18:56:13.354Z,56.79
2022-09-06T18:58:40.884Z,56.92
2022-09-06T19:01:14.973Z,57.09
2022-09-06T19:03:42.522Z,57.10
2022-09-06T19:06:15.406Z,57.32
2022-09-06T19:08:43.081Z,57.19
2022-09-06T19:11:12.585Z,57.56
2022-09-06T19:13:44.094Z,58.77
2022-09-06T19:16:12.417Z,57.88
2022-09-06T19:18:40.311Z,58.29
2022-09-06T19:21:16.712Z,58.22
2022-09-06T19:23:45.754Z,58.21
2022-09-06T19:26:16.989Z,58.45
2022-09-06T19:28:52.584Z,58.58
2022-09-06T19:31:19.696Z,58.64
2022-09-06T19:33:48.171Z,59.02
2022-09-06T19:36:15.617Z,59.17
2022-09-06T19:39:02.018Z,59.33
2022-09-06T19:41:30.687Z,59.31
2022-09-06T19:43:58.540Z,59.86
2022-09-06T19:46:26.682Z,59.61
2022-09-06T19:48:55.978Z,60.73
2022-09-06T19:51:24.169Z,59.96
2022-09-06T19:53:57.613Z,60.11
2022-09-06T19:56:30.015Z,60.30
2022-09-06T19:58:58.867Z,60.23
2022-09-06T20:01:29.228Z,60.47
2022-09-06T20:03:57.041Z,60.60
2022-09-06T20:06:24.442Z,60.60
2022-09-06T20:08:53.302Z,60.76
2022-09-06T20:11:21.922Z,60.98
2022-09-06T20:13:49.464Z,61.10
2022-09-06T20:16:18.541Z,61.07
2022-09-06T20:18:47.436Z,60.97
2022-09-06T20:21:14.938Z,60.90
2022-09-06T20:23:42.239Z,61.31
2022-09-06T20:26:11.515Z,61.31
2022-09-06T20:28:38.319Z,61.60
2022-09-06T20:31:18.485Z,61.61
2022-09-06T20:33:49.471Z,61.86
2022-09-06T20:36:17.292Z,61.72
2022-09-06T20:38:45.316Z,61.83
2022-09-06T20:41:20.445Z,61.99
2022-09-06T20:43:58.324Z,61.93
2022-09-06T20:46:30.334Z,62.12
2022-09-06T20:48:59.859Z,62.20
2022-09-06T20:51:26.745Z,62.26
2022-09-06T20:53:55.974Z,62.24
2022-09-06T20:56:31.913Z,62.64
2022-09-06T20:59:00.937Z,62.64
2022-09-06T21:01:30.740Z,62.95
2022-09-06T21:03:59.615Z,62.86
2022-09-06T21:06:29.098Z,63.20
2022-09-06T21:08:58.030Z,63.04
2022-09-06T21:11:24.865Z,63.83
2022-09-06T21:13:55.926Z,63.63
2022-09-06T21:16:28.253Z,63.79
2022-09-06T21:19:01.184Z,64.24
2022-09-06T21:21:30.146Z,64.67
2022-09-06T21:23:57.224Z,64.87
2022-09-06T21:26:23.997Z,64.78
2022-09-06T21:28:50.765Z,65.21
2022-09-06T21:31:23.097Z,65.27
2022-09-06T21:33:55.701Z,65.41
2022-09-06T21:36:29.366Z,65.43
2022-09-06T21:38:59.224Z,65.61
2022-09-06T21:41:27.275Z,65.85
2022-09-06T21:43:56.178Z,66.36
2022-09-06T21:46:27.922Z,66.46
2022-09-06T21:49:00.229Z,66.49
2022-09-06T21:51:27.409Z,66.58
2022-09-06T21:53:54.877Z,66.67
2022-09-06T21:56:23.870Z,67.17
2022-09-06T21:58:55.730Z,67.31
2022-09-06T22:01:23.960Z,67.61
2022-09-06T22:03:51.138Z,67.47
2022-09-06T22:06:29.413Z,67.24
2022-09-06T22:08:57.731Z,67.26
2022-09-06T22:11:28.371Z,67.58
2022-09-06T22:14:02.541Z,67.98
2022-09-06T22:16:31.102Z,67.89
2022-09-06T22:18:57.906Z,68.19
2022-09-06T22:21:25.168Z,67.88
2022-09-06T22:23:54.423Z,68.21
2022-09-06T22:26:22.150Z,68.20
2022-09-06T22:28:54.926Z,68.71
2022-09-06T22:31:22.514Z,68.27
2022-09-06T22:33:49.375Z,68.31
2022-09-06T22:36:16.850Z,68.51
2022-09-06T22:38:43.742Z,68.58
2022-09-06T22:41:10.963Z,68.81
2022-09-06T22:43:37.921Z,68.89
2022-09-06T22:46:09.926Z,68.41
2022-09-06T22:48:37.269Z,68.47
2022-09-06T22:51:06.035Z,68.62
2022-09-06T22:53:33.783Z,68.92
2022-09-06T22:56:01.384Z,69.19
2022-09-06T22:58:28.849Z,69.23
2022-09-06T23:00:56.655Z,69.42
2022-09-06T23:03:23.508Z,68.87
2022-09-06T23:05:50.329Z,69.30
2022-09-06T23:08:17.192Z,69.08
2022-09-06T23:10:44.382Z,68.62
2022-09-06T23:13:11.558Z,68.91
2022-09-06T23:15:41.062Z,68.82
2022-09-06T23:18:08.374Z,68.68
2022-09-06T23:20:39.578Z,68.71
2022-09-06T23:23:08.277Z,69.20
2022-09-06T23:25:39.240Z,69.29
2022-09-06T23:28:06.875Z,69.07
2022-09-06T23:30:37.592Z,69.61
2022-09-06T23:33:05.217Z,69.33
2022-09-06T23:35:32.118Z,69.22
2022-09-06T23:37:58.943Z,69.29
2022-09-06T23:40:25.848Z,69.42
2022-09-06T23:42:52.739Z,69.44
2022-09-06T23:45:19.447Z,69.55
2022-09-06T23:47:46.250Z,69.37
2022-09-06T23:50:13.031Z,69.51
2022-09-06T23:52:39.783Z,69.63
2022-09-06T23:55:09.335Z,69.67
2022-09-06T23:57:36.132Z,69.30
